createdAt,value
2019-05-17T00:01:48.185Z,1.85
2019-05-17T00:04:18.128Z,1.85
2019-05-17T00:06:48.049Z,1.62
2019-05-17T00:09:17.912Z,2.22
2019-05-17T00:11:47.767Z,3.60
2019-05-17T00:14:17.695Z,2.02
2019-05-17T00:16:47.619Z,1.57
2019-05-17T00:19:17.477Z,2.42
2019-05-17T00:21:47.618Z,1.85
2019-05-17T00:24:18.331Z,1.90
2019-05-17T00:26:48.833Z,2.67
2019-05-17T00:29:18.822Z,3.05
2019-05-17T00:31:48.824Z,1.80
2019-05-17T00:34:18.661Z,2.22
2019-05-17T00:36:48.592Z,3.30
2019-05-17T00:39:18.442Z,2.70
2019-05-17T00:41:48.429Z,1.60
2019-05-17T00:44:18.403Z,1.80
2019-05-17T00:46:48.273Z,3.05
2019-05-17T00:49:18.108Z,1.52
2019-05-17T00:51:47.965Z,2.22
2019-05-17T00:54:17.904Z,1.57
2019-05-17T00:56:47.908Z,1.70
2019-05-17T00:59:17.964Z,2.30
2019-05-17T01:01:47.826Z,1.65
2019-05-17T01:04:17.836Z,1.70
2019-05-17T01:06:48.912Z,1.70
2019-05-17T01:09:18.756Z,1.60
2019-05-17T01:11:48.625Z,1.75
2019-05-17T01:14:18.476Z,1.67
2019-05-17T01:16:48.560Z,1.80
2019-05-17T01:19:18.473Z,2.98
2019-05-17T01:21:48.426Z,2.40
2019-05-17T01:24:18.338Z,1.60
2019-05-17T01:26:48.213Z,1.77
2019-05-17T01:29:18.125Z,1.62
2019-05-17T01:31:48.146Z,1.45
2019-05-17T01:34:17.992Z,1.55
2019-05-17T01:36:47.862Z,2.33
2019-05-17T01:39:21.171Z,2.00
2019-05-17T01:41:49.340Z,1.95
2019-05-17T01:44:19.187Z,1.98
2019-05-17T01:46:49.048Z,1.80
2019-05-17T01:49:18.896Z,1.80
2019-05-17T01:51:48.759Z,3.37
2019-05-17T01:54:18.690Z,1.50
2019-05-17T01:56:48.696Z,2.05
2019-05-17T01:59:18.633Z,1.70
2019-05-17T02:01:50.195Z,2.35
2019-05-17T02:04:20.213Z,1.60
2019-05-17T02:06:50.105Z,2.65
2019-05-17T02:09:33.745Z,2.05
2019-05-17T02:11:51.610Z,1.65
2019-05-17T02:14:21.465Z,1.82
2019-05-17T02:16:51.377Z,1.52
2019-05-17T02:19:21.270Z,1.82
2019-05-17T02:21:51.252Z,2.35
2019-05-17T02:24:22.328Z,2.17
2019-05-17T02:26:52.241Z,1.62
2019-05-17T02:29:22.110Z,1.55
2019-05-17T02:31:52.600Z,1.92
2019-05-17T02:34:23.286Z,2.37
2019-05-17T02:36:53.590Z,2.17
2019-05-17T02:39:23.622Z,2.22
2019-05-17T02:41:53.588Z,2.33
2019-05-17T02:44:23.773Z,2.33
2019-05-17T02:46:53.945Z,1.82
2019-05-17T02:49:24.120Z,1.62
2019-05-17T02:51:55.373Z,1.85
2019-05-17T02:54:25.316Z,2.05
2019-05-17T02:56:55.257Z,1.60
2019-05-17T02:59:25.240Z,1.70
2019-05-17T03:01:55.087Z,2.15
2019-05-17T03:04:24.959Z,1.50
2019-05-17T03:06:54.878Z,2.17
2019-05-17T03:09:24.814Z,1.80
2019-05-17T03:11:57.034Z,1.70
2019-05-17T03:14:26.301Z,1.52
2019-05-17T03:16:56.153Z,1.70
2019-05-17T03:19:26.028Z,1.70
2019-05-17T03:21:56.116Z,2.40
2019-05-17T03:24:26.122Z,1.52
2019-05-17T03:26:56.109Z,2.20
2019-05-17T03:29:26.048Z,1.85
2019-05-17T03:31:59.914Z,1.80
2019-05-17T03:36:57.381Z,1.75
2019-05-17T03:39:28.492Z,1.52
2019-05-17T03:41:58.479Z,2.35
2019-05-17T03:44:28.480Z,2.25
2019-05-17T03:46:58.414Z,2.10
2019-05-17T03:49:28.422Z,2.20
2019-05-17T03:51:58.616Z,6.15
2019-05-17T03:54:28.626Z,4.20
2019-05-17T03:56:58.472Z,3.75
2019-05-17T03:59:28.477Z,4.28
2019-05-17T04:01:58.391Z,4.60
2019-05-17T04:04:28.324Z,4.92
2019-05-17T04:06:58.164Z,5.10
2019-05-17T04:09:28.106Z,3.15
2019-05-17T04:11:58.035Z,3.40
2019-05-17T04:14:28.031Z,4.80
2019-05-17T04:16:57.964Z,3.52
2019-05-17T04:19:27.966Z,3.65
2019-05-17T04:21:57.887Z,2.98
2019-05-17T04:24:27.829Z,3.67
2019-05-17T04:26:57.752Z,2.15
2019-05-17T04:29:27.830Z,4.70
2019-05-17T04:31:57.744Z,3.47
2019-05-17T04:34:27.621Z,3.10
2019-05-17T04:36:57.555Z,4.05
2019-05-17T04:39:27.467Z,5.65
2019-05-17T04:41:57.338Z,4.12
2019-05-17T04:44:27.245Z,3.02
2019-05-17T04:46:57.180Z,2.25
2019-05-17T04:49:27.091Z,2.77
2019-05-17T04:51:57.094Z,3.58
2019-05-17T04:54:27.008Z,2.65
2019-05-17T04:56:56.955Z,3.45
2019-05-17T04:59:26.863Z,4.05
2019-05-17T05:01:56.872Z,4.17
2019-05-17T05:04:26.786Z,3.83
2019-05-17T05:06:56.725Z,3.65
2019-05-17T05:09:26.569Z,3.55
2019-05-17T05:12:01.129Z,5.10
2019-05-17T05:14:28.048Z,5.22
2019-05-17T05:16:57.917Z,5.28
2019-05-17T05:19:27.837Z,6.08
2019-05-17T05:21:57.705Z,3.05
2019-05-17T05:24:27.639Z,5.22
2019-05-17T05:26:57.556Z,5.55
2019-05-17T05:29:27.417Z,5.55
2019-05-17T05:31:57.264Z,3.90
2019-05-17T05:34:27.197Z,4.10
2019-05-17T05:36:57.041Z,3.67
2019-05-17T05:39:28.061Z,4.40
2019-05-17T05:42:06.754Z,5.53
2019-05-17T05:44:29.476Z,3.80
2019-05-17T05:46:59.396Z,3.08
2019-05-17T05:49:29.404Z,3.12
2019-05-17T05:51:59.248Z,4.50
2019-05-17T05:54:29.193Z,2.60
2019-05-17T05:56:59.045Z,3.95
2019-05-17T05:59:31.553Z,3.20
2019-05-17T06:02:01.777Z,4.25
2019-05-17T06:04:31.985Z,3.25
2019-05-17T06:07:02.975Z,3.85
2019-05-17T06:09:34.207Z,4.00
2019-05-17T06:12:04.308Z,3.12
2019-05-17T06:14:34.260Z,3.22
2019-05-17T06:17:04.185Z,3.52
2019-05-17T06:19:34.052Z,3.17
2019-05-17T06:22:03.986Z,3.25
2019-05-17T06:24:33.922Z,2.62
2019-05-17T06:27:03.841Z,2.83
2019-05-17T06:29:33.785Z,3.00
2019-05-17T06:32:03.659Z,3.58
2019-05-17T06:34:33.593Z,2.10
2019-05-17T06:37:03.461Z,2.90
2019-05-17T06:39:33.385Z,4.00
2019-05-17T06:42:03.265Z,3.62
2019-05-17T06:44:33.134Z,3.20
2019-05-17T06:47:03.082Z,3.55
2019-05-17T06:49:32.984Z,2.52
2019-05-17T06:52:02.925Z,2.83
2019-05-17T06:54:33.233Z,5.78
2019-05-17T06:57:03.476Z,2.52
2019-05-17T06:59:34.665Z,2.50
2019-05-17T07:02:04.872Z,2.87
2019-05-17T07:04:34.801Z,5.20
2019-05-17T07:07:24.233Z,1.90
2019-05-17T07:09:55.316Z,2.87
2019-05-17T07:12:26.131Z,3.25
2019-05-17T07:14:58.345Z,3.47
2019-05-17T07:17:30.246Z,2.58
2019-05-17T07:19:59.865Z,2.67
2019-05-17T07:22:29.855Z,3.17
2019-05-17T07:24:59.935Z,2.00
2019-05-17T07:27:41.014Z,1.90
2019-05-17T07:30:01.536Z,2.40
2019-05-17T07:32:31.713Z,2.42
2019-05-17T07:35:01.583Z,2.27
2019-05-17T07:37:31.861Z,2.22
2019-05-17T07:40:05.053Z,1.77
2019-05-17T07:42:33.347Z,2.72
2019-05-17T07:45:05.234Z,2.45
2019-05-17T07:50:06.205Z,3.45
2019-05-17T07:52:36.363Z,2.12
2019-05-17T07:55:07.128Z,1.95
2019-05-17T07:57:37.062Z,1.57
2019-05-17T08:00:10.144Z,2.33
2019-05-17T08:02:40.292Z,2.02
2019-05-17T08:05:10.812Z,2.65
2019-05-17T08:07:40.952Z,2.30
2019-05-17T08:10:11.381Z,2.65
2019-05-17T08:12:41.396Z,3.83
2019-05-17T08:15:11.504Z,1.92
2019-05-17T08:17:41.372Z,2.67
2019-05-17T08:20:11.552Z,2.10
2019-05-17T08:22:41.497Z,2.52
2019-05-17T08:25:11.781Z,1.95
2019-05-17T08:27:41.776Z,2.95
2019-05-17T08:30:12.040Z,1.95
2019-05-17T08:32:41.993Z,1.90
2019-05-17T08:35:12.248Z,2.02
2019-05-17T08:37:42.724Z,2.65
2019-05-17T08:40:15.292Z,2.27
2019-05-17T08:42:46.147Z,1.92
2019-05-17T08:45:16.381Z,1.87
2019-05-17T08:47:46.324Z,2.17
2019-05-17T08:50:16.583Z,2.08
2019-05-17T08:52:46.549Z,2.52
2019-05-17T08:55:16.609Z,1.72
2019-05-17T08:57:46.554Z,1.40
2019-05-17T09:00:20.761Z,2.13
2019-05-17T09:02:49.994Z,1.77
2019-05-17T09:05:21.170Z,1.87
2019-05-17T09:07:51.525Z,1.57
2019-05-17T09:10:22.904Z,2.27
2019-05-17T09:12:52.836Z,3.15
2019-05-17T09:15:22.823Z,1.80
2019-05-17T09:17:52.685Z,1.98
2019-05-17T09:20:22.616Z,1.82
2019-05-17T09:22:52.478Z,2.15
2019-05-17T09:25:22.340Z,2.33
2019-05-17T09:27:52.340Z,1.65
2019-05-17T09:30:25.451Z,1.60
2019-05-17T09:32:54.352Z,1.60
2019-05-17T09:35:24.217Z,2.87
2019-05-17T09:37:54.228Z,1.47
2019-05-17T09:40:24.071Z,1.60
2019-05-17T09:42:53.945Z,1.60
2019-05-17T09:45:23.859Z,1.60
2019-05-17T09:47:53.806Z,1.40
2019-05-17T09:50:23.722Z,3.08
2019-05-17T09:52:53.596Z,1.45
2019-05-17T09:55:23.541Z,1.82
2019-05-17T09:57:53.396Z,1.55
2019-05-17T10:00:23.673Z,2.15
2019-05-17T10:02:53.522Z,1.65
2019-05-17T10:05:23.379Z,1.45
2019-05-17T10:07:53.224Z,2.33
2019-05-17T10:10:23.236Z,1.92
2019-05-17T10:12:53.084Z,2.70
2019-05-17T10:15:23.017Z,1.62
2019-05-17T10:17:52.940Z,1.37
2019-05-17T10:20:22.974Z,1.40
2019-05-17T10:22:52.887Z,1.55
2019-05-17T10:25:22.753Z,1.60
2019-05-17T10:27:53.671Z,1.57
2019-05-17T10:30:23.609Z,1.72
2019-05-17T10:32:53.530Z,2.12
2019-05-17T10:35:23.552Z,1.35
2019-05-17T10:37:53.546Z,2.00
2019-05-17T10:40:23.825Z,1.50
2019-05-17T10:42:53.749Z,2.17
2019-05-17T10:45:23.772Z,1.30
2019-05-17T10:47:53.692Z,1.40
2019-05-17T10:50:24.696Z,1.50
2019-05-17T10:52:54.545Z,1.40
2019-05-17T10:55:24.417Z,1.30
2019-05-17T10:57:54.333Z,1.70
2019-05-17T11:00:24.635Z,1.32
2019-05-17T11:02:54.552Z,1.60
2019-05-17T11:05:24.419Z,1.90
2019-05-17T11:07:54.338Z,1.80
2019-05-17T11:10:25.421Z,1.83
2019-05-17T11:12:55.264Z,1.32
2019-05-17T11:15:25.275Z,1.32
2019-05-17T11:17:55.160Z,1.30
2019-05-17T11:20:25.444Z,1.60
2019-05-17T11:22:55.474Z,1.80
2019-05-17T11:25:25.420Z,1.37
2019-05-17T11:27:55.411Z,1.40
2019-05-17T11:30:25.294Z,1.80
2019-05-17T11:32:55.184Z,1.72
2019-05-17T11:35:25.209Z,1.45
2019-05-17T11:37:55.187Z,1.50
2019-05-17T11:40:25.277Z,1.30
2019-05-17T11:42:55.265Z,2.00
2019-05-17T11:45:29.028Z,1.27
2019-05-17T11:47:56.690Z,1.60
2019-05-17T11:50:26.625Z,1.50
2019-05-17T11:52:56.476Z,1.60
2019-05-17T11:55:26.421Z,1.50
2019-05-17T11:57:56.266Z,1.25
2019-05-17T12:00:27.349Z,1.20
2019-05-17T12:02:57.201Z,1.40
2019-05-17T12:05:27.216Z,1.77
2019-05-17T12:07:57.127Z,1.30
2019-05-17T12:10:27.358Z,1.37
2019-05-17T12:12:58.401Z,1.70
2019-05-17T12:15:43.706Z,1.55
2019-05-17T12:18:00.032Z,1.42
2019-05-17T12:20:30.117Z,1.35
2019-05-17T12:23:00.037Z,1.37
2019-05-17T12:25:31.180Z,1.40
2019-05-17T12:28:02.204Z,1.30
2019-05-17T12:30:32.348Z,1.37
2019-05-17T12:33:02.321Z,1.52
2019-05-17T12:35:32.300Z,1.40
2019-05-17T12:38:02.333Z,1.22
2019-05-17T12:40:32.245Z,1.30
2019-05-17T12:43:02.193Z,1.45
2019-05-17T12:45:32.108Z,1.85
2019-05-17T12:48:02.071Z,1.40
2019-05-17T12:50:32.046Z,1.20
2019-05-17T12:53:01.922Z,1.25
2019-05-17T12:55:31.785Z,1.85
2019-05-17T12:58:02.180Z,1.37
2019-05-17T13:00:32.261Z,1.35
2019-05-17T13:03:02.288Z,1.42
2019-05-17T13:05:32.208Z,1.25
2019-05-17T13:08:02.204Z,1.72
2019-05-17T13:10:32.135Z,1.57
2019-05-17T13:13:02.135Z,2.70
2019-05-17T13:15:32.137Z,1.40
2019-05-17T13:18:01.986Z,1.72
2019-05-17T13:20:31.929Z,1.50
2019-05-17T13:23:01.966Z,1.30
2019-05-17T13:25:32.094Z,1.45
2019-05-17T13:28:02.061Z,1.37
2019-05-17T13:30:31.991Z,1.40
2019-05-17T13:33:01.937Z,1.30
2019-05-17T13:35:31.857Z,1.30
2019-05-17T13:38:01.740Z,1.25
2019-05-17T13:40:39.317Z,1.20
2019-05-17T13:43:03.238Z,1.55
2019-05-17T13:45:33.436Z,1.30
2019-05-17T13:48:03.470Z,1.30
2019-05-17T13:50:34.367Z,1.07
2019-05-17T13:53:04.460Z,1.27
2019-05-17T13:55:34.478Z,1.40
2019-05-17T13:58:04.533Z,1.00
2019-05-17T14:00:34.536Z,1.30
2019-05-17T14:03:04.621Z,1.42
2019-05-17T14:05:34.607Z,1.25
2019-05-17T14:08:04.779Z,1.47
2019-05-17T14:10:34.616Z,1.25
2019-05-17T14:13:04.549Z,1.30
2019-05-17T14:15:34.461Z,1.60
2019-05-17T14:18:04.465Z,1.77
2019-05-17T14:20:34.378Z,1.22
2019-05-17T14:23:04.457Z,1.25
2019-05-17T14:25:34.364Z,1.30
2019-05-17T14:28:04.397Z,1.30
2019-05-17T14:30:34.384Z,2.05
2019-05-17T14:33:04.387Z,1.20
2019-05-17T14:35:34.385Z,1.57
2019-05-17T14:38:04.471Z,0.98
2019-05-17T14:41:04.316Z,1.17
2019-05-17T14:43:05.982Z,1.32
2019-05-17T14:45:35.890Z,1.20
2019-05-17T14:48:05.909Z,1.10
2019-05-17T14:50:35.818Z,1.20
2019-05-17T14:53:05.753Z,1.10
2019-05-17T14:55:35.769Z,1.17
2019-05-17T14:58:05.748Z,1.55
2019-05-17T15:00:35.684Z,1.95
2019-05-17T15:03:07.592Z,1.30
2019-05-17T15:05:37.173Z,1.30
2019-05-17T15:08:07.125Z,1.30
2019-05-17T15:10:37.072Z,1.00
2019-05-17T15:13:06.923Z,1.20
2019-05-17T15:15:36.857Z,1.00
2019-05-17T15:18:09.462Z,1.02
2019-05-17T15:20:38.401Z,1.40
2019-05-17T15:23:08.352Z,1.12
2019-05-17T15:25:38.271Z,1.32
2019-05-17T15:28:08.213Z,1.10
2019-05-17T15:30:38.127Z,1.10
2019-05-17T15:33:08.129Z,1.25
2019-05-17T15:35:38.219Z,1.40
2019-05-17T15:38:11.044Z,1.20
2019-05-17T15:40:40.013Z,1.10
2019-05-17T15:43:09.949Z,1.00
2019-05-17T15:45:39.816Z,1.00
2019-05-17T15:48:09.843Z,1.47
2019-05-17T15:50:39.823Z,1.62
2019-05-17T15:53:09.745Z,1.20
2019-05-17T15:55:39.608Z,1.45
2019-05-17T15:58:09.523Z,0.93
2019-05-17T16:00:39.536Z,0.90
2019-05-17T16:03:09.467Z,1.00
2019-05-17T16:05:39.462Z,1.42
2019-05-17T16:08:09.394Z,1.87
2019-05-17T16:10:39.246Z,1.00
2019-05-17T16:13:09.186Z,1.20
2019-05-17T16:15:39.145Z,1.05
2019-05-17T16:18:09.046Z,1.10
2019-05-17T16:20:38.971Z,1.10
2019-05-17T16:23:08.922Z,1.50
2019-05-17T16:25:38.981Z,1.00
2019-05-17T16:28:08.916Z,1.02
2019-05-17T16:30:38.837Z,1.10
2019-05-17T16:33:08.790Z,0.90
2019-05-17T16:35:38.703Z,1.25
2019-05-17T16:38:08.574Z,1.10
2019-05-17T16:40:39.561Z,1.03
2019-05-17T16:43:17.708Z,1.05
2019-05-17T16:45:41.133Z,1.10
2019-05-17T16:48:11.068Z,1.10
2019-05-17T16:50:40.982Z,1.20
2019-05-17T16:53:12.064Z,1.20
2019-05-17T16:55:42.044Z,1.10
2019-05-17T16:58:12.084Z,1.10
2019-05-17T17:00:43.371Z,1.20
2019-05-17T17:03:13.380Z,1.07
2019-05-17T17:05:43.374Z,1.10
2019-05-17T17:08:13.327Z,1.12
2019-05-17T17:10:43.305Z,1.35
2019-05-17T17:13:13.379Z,2.70
2019-05-17T17:15:43.240Z,1.92
2019-05-17T17:18:13.092Z,1.60
2019-05-17T17:20:43.168Z,2.10
2019-05-17T17:23:13.247Z,1.70
2019-05-17T17:25:43.109Z,3.00
2019-05-17T17:28:12.963Z,3.33
2019-05-17T17:30:43.047Z,2.62
2019-05-17T17:33:13.030Z,4.95
2019-05-17T17:35:43.032Z,3.10
2019-05-17T17:38:12.872Z,3.33
2019-05-17T17:40:42.740Z,4.33
2019-05-17T17:43:13.355Z,5.37
2019-05-17T17:45:43.293Z,4.22
2019-05-17T17:48:13.309Z,3.52
2019-05-17T17:50:43.931Z,4.05
2019-05-17T17:53:13.832Z,2.95
2019-05-17T17:55:43.702Z,2.67
2019-05-17T17:58:13.702Z,3.55
2019-05-17T18:00:43.627Z,7.95
2019-05-17T18:03:15.301Z,5.30
2019-05-17T18:05:45.270Z,4.62
2019-05-17T18:08:15.148Z,6.00
2019-05-17T18:10:46.680Z,6.47
2019-05-17T18:13:16.693Z,6.47
2019-05-17T18:15:49.783Z,4.65
2019-05-17T18:18:18.353Z,5.87
2019-05-17T18:20:48.269Z,6.30
2019-05-17T18:23:22.470Z,6.85
2019-05-17T18:25:49.767Z,9.85
2019-05-17T18:28:19.619Z,18.35
2019-05-17T18:30:49.497Z,14.63
2019-05-17T18:33:19.421Z,18.17
2019-05-17T18:35:49.452Z,13.08
2019-05-17T18:38:22.456Z,15.63
2019-05-17T18:40:52.391Z,16.37
2019-05-17T18:43:22.309Z,14.07
2019-05-17T18:45:52.325Z,16.25
2019-05-17T18:48:22.193Z,16.10
2019-05-17T18:50:52.283Z,18.52
2019-05-17T18:53:22.200Z,12.85
2019-05-17T18:55:52.217Z,15.60
2019-05-17T18:58:22.201Z,15.85
2019-05-17T19:00:52.241Z,23.60
2019-05-17T19:03:22.229Z,13.83
2019-05-17T19:05:52.240Z,15.50
2019-05-17T19:08:22.114Z,16.35
2019-05-17T19:10:52.121Z,13.72
2019-05-17T19:13:21.972Z,15.13
2019-05-17T19:15:51.922Z,14.13
2019-05-17T19:18:21.849Z,11.75
2019-05-17T19:20:53.295Z,10.98
2019-05-17T19:23:25.807Z,13.35
2019-05-17T19:25:54.809Z,12.13
2019-05-17T19:28:24.804Z,13.13
2019-05-17T19:30:54.716Z,14.43
2019-05-17T19:33:24.634Z,12.00
2019-05-17T19:35:54.578Z,13.78
2019-05-17T19:38:24.497Z,12.25
2019-05-17T19:40:54.394Z,10.00
2019-05-17T19:43:24.320Z,11.15
2019-05-17T19:45:54.193Z,9.38
2019-05-17T19:48:24.033Z,9.30
2019-05-17T19:50:53.990Z,10.95
2019-05-17T19:53:23.925Z,8.30
2019-05-17T19:55:54.913Z,9.90
2019-05-17T19:58:24.914Z,11.97
2019-05-17T20:00:55.057Z,10.93
2019-05-17T20:03:24.977Z,11.95
2019-05-17T20:05:54.874Z,11.30
2019-05-17T20:08:24.807Z,11.35
2019-05-17T20:10:54.717Z,10.60
2019-05-17T20:13:24.574Z,9.73
2019-05-17T20:15:54.586Z,8.73
2019-05-17T20:18:24.535Z,12.95
2019-05-17T20:20:54.542Z,11.73
2019-05-17T20:23:25.561Z,9.80
2019-05-17T20:25:55.488Z,9.60
2019-05-17T20:28:25.445Z,8.43
2019-05-17T20:30:55.357Z,9.03
2019-05-17T20:33:25.228Z,7.03
2019-05-17T20:35:55.145Z,11.05
2019-05-17T20:38:25.835Z,7.87
2019-05-17T20:40:55.704Z,9.03
2019-05-17T20:43:25.708Z,6.80
2019-05-17T20:45:55.572Z,8.08
2019-05-17T20:48:26.140Z,8.53
2019-05-17T20:50:56.313Z,7.40
2019-05-17T20:53:26.402Z,7.90
2019-05-17T20:55:56.449Z,10.98
2019-05-17T20:58:26.365Z,6.58
2019-05-17T21:00:56.381Z,8.53
2019-05-17T21:03:26.295Z,8.30
2019-05-17T21:05:56.162Z,7.78
2019-05-17T21:08:26.832Z,7.20
2019-05-17T21:10:57.064Z,6.83
2019-05-17T21:13:27.036Z,6.42
2019-05-17T21:15:56.913Z,6.30
2019-05-17T21:18:26.819Z,6.72
2019-05-17T21:20:56.682Z,7.30
2019-05-17T21:23:26.703Z,6.15
2019-05-17T21:25:59.217Z,7.03
2019-05-17T21:28:28.114Z,6.70
2019-05-17T21:30:58.063Z,6.72
2019-05-17T21:33:27.980Z,7.03
2019-05-17T21:35:57.952Z,7.85
2019-05-17T21:38:27.864Z,5.58
2019-05-17T21:40:57.728Z,6.72
2019-05-17T21:43:27.663Z,5.80
2019-05-17T21:46:03.725Z,6.22
2019-05-17T21:48:31.038Z,6.95
2019-05-17T21:51:01.062Z,5.53
2019-05-17T21:53:30.996Z,6.20
2019-05-17T21:56:01.168Z,5.35
2019-05-17T21:58:31.089Z,5.70
2019-05-17T22:01:04.177Z,6.15
2019-05-17T22:03:34.196Z,5.15
2019-05-17T22:06:04.273Z,6.28
2019-05-17T22:08:34.185Z,6.70
2019-05-17T22:11:04.193Z,5.83
2019-05-17T22:13:34.117Z,5.03
2019-05-17T22:16:18.556Z,5.17
2019-05-17T22:18:35.743Z,5.12
2019-05-17T22:21:05.749Z,4.50
2019-05-17T22:23:35.667Z,5.58
2019-05-17T22:26:05.676Z,4.60
2019-05-17T22:28:35.604Z,4.58
2019-05-17T22:31:05.669Z,4.70
2019-05-17T22:33:35.603Z,4.83
2019-05-17T22:36:05.521Z,6.25
2019-05-17T22:38:35.455Z,4.80
2019-05-17T22:41:05.302Z,4.78
2019-05-17T22:43:35.160Z,4.10
2019-05-17T22:46:05.072Z,5.03
2019-05-17T22:48:34.950Z,4.50
2019-05-17T22:51:05.076Z,5.25
2019-05-17T22:53:35.077Z,4.28
2019-05-17T22:56:05.056Z,4.50
2019-05-17T22:58:34.925Z,5.45
2019-05-17T23:01:04.770Z,4.05
2019-05-17T23:03:34.709Z,5.15
2019-05-17T23:06:04.843Z,4.87
2019-05-17T23:08:34.815Z,7.50
2019-05-17T23:11:04.797Z,7.25
2019-05-17T23:13:34.734Z,8.13
2019-05-17T23:16:06.920Z,8.75
2019-05-17T23:18:36.852Z,7.83
2019-05-17T23:21:06.709Z,10.15
2019-05-17T23:23:36.652Z,10.08
2019-05-17T23:26:06.589Z,8.98
2019-05-17T23:28:36.509Z,11.88
2019-05-17T23:31:06.444Z,11.70
2019-05-17T23:33:36.356Z,10.15
2019-05-17T23:36:06.240Z,11.63
2019-05-17T23:38:36.167Z,10.98
2019-05-17T23:41:06.183Z,12.55
2019-05-17T23:43:36.105Z,15.28
2019-05-17T23:46:05.981Z,17.82
2019-05-17T23:48:35.914Z,15.63
2019-05-17T23:51:05.867Z,15.93
2019-05-17T23:53:35.776Z,16.80
2019-05-17T23:56:05.729Z,16.07
2019-05-17T23:58:35.656Z,14.25
